sensor_id;sensor_type;location;lat;lon;timestamp;P1;durP1;ratioP1;P2;durP2;ratioP2
75419;SDS011;63998;52.488;13.428;2023-06-10T00:00:48;6.10;;;4.32;;
75419;SDS011;63998;52.488;13.428;2023-06-10T00:03:13;7.40;;;3.83;;
75419;SDS011;63998;52.488;13.428;2023-06-10T00:05:39;8.13;;;3.95;;
75419;SDS011;63998;52.488;13.428;2023-06-10T00:08:05;7.05;;;3.63;;
75419;SDS011;63998;52.488;13.428;2023-06-10T00:10:37;7.10;;;4.18;;
75419;SDS011;63998;52.488;13.428;2023-06-10T00:13:06;7.40;;;3.70;;
75419;SDS011;63998;52.488;13.428;2023-06-10T00:15:34;8.93;;;3.83;;
75419;SDS011;63998;52.488;13.428;2023-06-10T00:18:00;7.93;;;4.53;;
75419;SDS011;63998;52.488;13.428;2023-06-10T00:20:28;6.75;;;3.53;;
75419;SDS011;63998;52.488;13.428;2023-06-10T00:22:55;8.18;;;3.60;;
75419;SDS011;63998;52.488;13.428;2023-06-10T00:25:21;7.82;;;4.15;;
75419;SDS011;63998;52.488;13.428;2023-06-10T00:27:47;6.63;;;3.80;;
75419;SDS011;63998;52.488;13.428;2023-06-10T00:30:12;9.87;;;4.00;;
75419;SDS011;63998;52.488;13.428;2023-06-10T00:32:38;10.43;;;4.65;;
75419;SDS011;63998;52.488;13.428;2023-06-10T00:35:04;6.78;;;4.13;;
75419;SDS011;63998;52.488;13.428;2023-06-10T00:37:30;8.93;;;3.75;;
75419;SDS011;63998;52.488;13.428;2023-06-10T00:39:55;9.65;;;4.18;;
75419;SDS011;63998;52.488;13.428;2023-06-10T00:42:21;6.82;;;3.50;;
75419;SDS011;63998;52.488;13.428;2023-06-10T00:44:49;6.72;;;3.97;;
75419;SDS011;63998;52.488;13.428;2023-06-10T00:47:15;9.82;;;4.00;;
75419;SDS011;63998;52.488;13.428;2023-06-10T00:49:40;7.75;;;3.55;;
75419;SDS011;63998;52.488;13.428;2023-06-10T00:52:06;8.32;;;3.90;;
75419;SDS011;63998;52.488;13.428;2023-06-10T00:54:32;9.20;;;4.10;;
75419;SDS011;63998;52.488;13.428;2023-06-10T00:57:00;7.68;;;4.18;;
75419;SDS011;63998;52.488;13.428;2023-06-10T00:59:26;6.53;;;3.50;;
75419;SDS011;63998;52.488;13.428;2023-06-10T01:01:53;9.98;;;4.13;;
75419;SDS011;63998;52.488;13.428;2023-06-10T01:04:18;7.05;;;3.65;;
75419;SDS011;63998;52.488;13.428;2023-06-10T01:09:59;9.40;;;3.47;;
75419;SDS011;63998;52.488;13.428;2023-06-10T01:14:59;10.98;;;4.50;;
75419;SDS011;63998;52.488;13.428;2023-06-10T01:17:25;7.72;;;4.07;;
75419;SDS011;63998;52.488;13.428;2023-06-10T01:19:55;10.45;;;4.15;;
75419;SDS011;63998;52.488;13.428;2023-06-10T01:22:22;5.97;;;3.67;;
75419;SDS011;63998;52.488;13.428;2023-06-10T01:24:53;8.55;;;4.18;;
75419;SDS011;63998;52.488;13.428;2023-06-10T01:27:23;8.25;;;4.15;;
75419;SDS011;63998;52.488;13.428;2023-06-10T01:29:58;6.72;;;3.67;;
75419;SDS011;63998;52.488;13.428;2023-06-10T01:32:32;7.35;;;3.30;;
75419;SDS011;63998;52.488;13.428;2023-06-10T01:35:02;6.15;;;4.32;;
75419;SDS011;63998;52.488;13.428;2023-06-10T01:37:28;8.60;;;3.95;;
75419;SDS011;63998;52.488;13.428;2023-06-10T01:39:57;6.88;;;3.65;;
75419;SDS011;63998;52.488;13.428;2023-06-10T01:42:24;6.75;;;3.63;;
75419;SDS011;63998;52.488;13.428;2023-06-10T01:44:50;11.02;;;3.97;;
75419;SDS011;63998;52.488;13.428;2023-06-10T01:47:16;7.97;;;3.80;;
75419;SDS011;63998;52.488;13.428;2023-06-10T01:49:41;6.90;;;3.80;;
75419;SDS011;63998;52.488;13.428;2023-06-10T01:52:07;5.70;;;3.85;;
75419;SDS011;63998;52.488;13.428;2023-06-10T01:54:32;5.50;;;3.63;;
75419;SDS011;63998;52.488;13.428;2023-06-10T01:56:59;7.95;;;4.28;;
75419;SDS011;63998;52.488;13.428;2023-06-10T01:59:25;8.18;;;4.15;;
75419;SDS011;63998;52.488;13.428;2023-06-10T02:01:51;8.07;;;4.17;;
75419;SDS011;63998;52.488;13.428;2023-06-10T02:04:16;8.97;;;4.37;;
75419;SDS011;63998;52.488;13.428;2023-06-10T02:06:41;7.35;;;3.80;;
75419;SDS011;63998;52.488;13.428;2023-06-10T02:09:07;9.13;;;3.88;;
75419;SDS011;63998;52.488;13.428;2023-06-10T02:11:32;8.77;;;4.20;;
75419;SDS011;63998;52.488;13.428;2023-06-10T02:13:58;8.40;;;3.92;;
75419;SDS011;63998;52.488;13.428;2023-06-10T02:16:23;9.35;;;3.80;;
75419;SDS011;63998;52.488;13.428;2023-06-10T02:18:49;8.20;;;4.18;;
75419;SDS011;63998;52.488;13.428;2023-06-10T02:21:14;5.75;;;3.63;;
75419;SDS011;63998;52.488;13.428;2023-06-10T02:23:39;6.53;;;3.45;;
75419;SDS011;63998;52.488;13.428;2023-06-10T02:26:05;6.53;;;3.67;;
75419;SDS011;63998;52.488;13.428;2023-06-10T02:28:30;8.13;;;3.85;;
75419;SDS011;63998;52.488;13.428;2023-06-10T02:30:56;10.13;;;4.30;;
75419;SDS011;63998;52.488;13.428;2023-06-10T02:33:22;7.63;;;4.30;;
75419;SDS011;63998;52.488;13.428;2023-06-10T02:35:48;7.20;;;4.00;;
75419;SDS011;63998;52.488;13.428;2023-06-10T02:38:13;11.77;;;5.68;;
75419;SDS011;63998;52.488;13.428;2023-06-10T02:40:39;6.80;;;4.07;;
75419;SDS011;63998;52.488;13.428;2023-06-10T02:43:04;6.80;;;3.67;;
75419;SDS011;63998;52.488;13.428;2023-06-10T02:45:29;8.50;;;3.95;;
75419;SDS011;63998;52.488;13.428;2023-06-10T02:47:55;9.33;;;4.00;;
75419;SDS011;63998;52.488;13.428;2023-06-10T02:50:20;8.52;;;4.28;;
75419;SDS011;63998;52.488;13.428;2023-06-10T02:52:46;6.47;;;3.88;;
75419;SDS011;63998;52.488;13.428;2023-06-10T02:55:13;9.00;;;4.57;;
75419;SDS011;63998;52.488;13.428;2023-06-10T02:57:39;10.95;;;4.55;;
75419;SDS011;63998;52.488;13.428;2023-06-10T03:00:04;9.75;;;4.25;;
75419;SDS011;63998;52.488;13.428;2023-06-10T03:02:34;11.32;;;4.70;;
75419;SDS011;63998;52.488;13.428;2023-06-10T03:05:03;7.32;;;4.68;;
75419;SDS011;63998;52.488;13.428;2023-06-10T03:07:30;7.18;;;4.38;;
75419;SDS011;63998;52.488;13.428;2023-06-10T03:09:56;8.23;;;4.30;;
75419;SDS011;63998;52.488;13.428;2023-06-10T03:12:21;15.80;;;7.82;;
75419;SDS011;63998;52.488;13.428;2023-06-10T03:14:46;7.07;;;4.15;;
75419;SDS011;63998;52.488;13.428;2023-06-10T03:17:12;10.23;;;4.65;;
75419;SDS011;63998;52.488;13.428;2023-06-10T03:19:37;7.95;;;4.53;;
75419;SDS011;63998;52.488;13.428;2023-06-10T03:22:10;9.05;;;4.65;;
75419;SDS011;63998;52.488;13.428;2023-06-10T03:24:36;9.07;;;4.30;;
75419;SDS011;63998;52.488;13.428;2023-06-10T03:27:05;8.13;;;5.15;;
75419;SDS011;63998;52.488;13.428;2023-06-10T03:29:34;7.00;;;4.53;;
75419;SDS011;63998;52.488;13.428;2023-06-10T03:32:00;9.50;;;5.00;;
75419;SDS011;63998;52.488;13.428;2023-06-10T03:34:26;7.55;;;4.15;;
75419;SDS011;63998;52.488;13.428;2023-06-10T03:36:52;5.70;;;4.07;;
75419;SDS011;63998;52.488;13.428;2023-06-10T03:39:17;7.13;;;4.47;;
75419;SDS011;63998;52.488;13.428;2023-06-10T03:41:42;8.35;;;4.60;;
75419;SDS011;63998;52.488;13.428;2023-06-10T03:44:08;7.60;;;4.50;;
75419;SDS011;63998;52.488;13.428;2023-06-10T03:46:33;6.60;;;4.20;;
75419;SDS011;63998;52.488;13.428;2023-06-10T03:48:58;8.50;;;4.47;;
75419;SDS011;63998;52.488;13.428;2023-06-10T03:51:25;12.18;;;5.40;;
75419;SDS011;63998;52.488;13.428;2023-06-10T03:53:51;9.80;;;5.00;;
75419;SDS011;63998;52.488;13.428;2023-06-10T03:56:17;9.25;;;4.93;;
75419;SDS011;63998;52.488;13.428;2023-06-10T03:58:42;8.43;;;4.20;;
75419;SDS011;63998;52.488;13.428;2023-06-10T04:01:08;9.85;;;5.18;;
75419;SDS011;63998;52.488;13.428;2023-06-10T04:03:33;10.20;;;4.87;;
75419;SDS011;63998;52.488;13.428;2023-06-10T04:05:59;9.50;;;5.30;;
75419;SDS011;63998;52.488;13.428;2023-06-10T04:08:24;9.83;;;4.83;;
75419;SDS011;63998;52.488;13.428;2023-06-10T04:10:49;8.73;;;4.90;;
75419;SDS011;63998;52.488;13.428;2023-06-10T04:13:15;11.00;;;6.67;;
75419;SDS011;63998;52.488;13.428;2023-06-10T04:15:40;10.03;;;5.97;;
75419;SDS011;63998;52.488;13.428;2023-06-10T04:18:06;7.87;;;4.70;;
75419;SDS011;63998;52.488;13.428;2023-06-10T04:20:31;9.35;;;5.15;;
75419;SDS011;63998;52.488;13.428;2023-06-10T04:22:57;8.43;;;4.80;;
75419;SDS011;63998;52.488;13.428;2023-06-10T04:25:22;9.98;;;5.10;;
75419;SDS011;63998;52.488;13.428;2023-06-10T04:27:49;7.47;;;4.68;;
75419;SDS011;63998;52.488;13.428;2023-06-10T04:30:15;8.85;;;4.90;;
75419;SDS011;63998;52.488;13.428;2023-06-10T04:32:41;9.88;;;5.00;;
75419;SDS011;63998;52.488;13.428;2023-06-10T04:35:06;9.53;;;5.03;;
75419;SDS011;63998;52.488;13.428;2023-06-10T04:37:32;9.00;;;5.00;;
75419;SDS011;63998;52.488;13.428;2023-06-10T04:39:58;10.83;;;5.43;;
75419;SDS011;63998;52.488;13.428;2023-06-10T04:42:24;8.75;;;4.70;;
75419;SDS011;63998;52.488;13.428;2023-06-10T04:44:49;8.98;;;5.13;;
75419;SDS011;63998;52.488;13.428;2023-06-10T04:47:15;9.33;;;5.13;;
75419;SDS011;63998;52.488;13.428;2023-06-10T04:49:42;10.50;;;5.20;;
75419;SDS011;63998;52.488;13.428;2023-06-10T04:52:07;8.05;;;5.03;;
75419;SDS011;63998;52.488;13.428;2023-06-10T04:54:33;8.37;;;4.80;;
75419;SDS011;63998;52.488;13.428;2023-06-10T04:56:58;9.98;;;5.60;;
75419;SDS011;63998;52.488;13.428;2023-06-10T04:59:24;9.35;;;4.70;;
75419;SDS011;63998;52.488;13.428;2023-06-10T05:01:50;9.40;;;5.50;;
75419;SDS011;63998;52.488;13.428;2023-06-10T05:04:15;9.57;;;5.13;;
75419;SDS011;63998;52.488;13.428;2023-06-10T05:06:40;12.40;;;4.80;;
75419;SDS011;63998;52.488;13.428;2023-06-10T05:09:05;6.77;;;4.67;;
75419;SDS011;63998;52.488;13.428;2023-06-10T05:11:31;6.80;;;5.00;;
75419;SDS011;63998;52.488;13.428;2023-06-10T05:13:56;8.32;;;4.70;;
75419;SDS011;63998;52.488;13.428;2023-06-10T05:16:21;7.37;;;4.53;;
75419;SDS011;63998;52.488;13.428;2023-06-10T05:18:47;7.30;;;4.77;;
75419;SDS011;63998;52.488;13.428;2023-06-10T05:21:12;11.70;;;5.38;;
75419;SDS011;63998;52.488;13.428;2023-06-10T05:23:37;8.10;;;5.27;;
75419;SDS011;63998;52.488;13.428;2023-06-10T05:26:03;9.10;;;6.00;;
75419;SDS011;63998;52.488;13.428;2023-06-10T05:28:28;11.10;;;7.03;;
75419;SDS011;63998;52.488;13.428;2023-06-10T05:30:53;9.37;;;5.80;;
75419;SDS011;63998;52.488;13.428;2023-06-10T05:33:19;8.37;;;5.03;;
75419;SDS011;63998;52.488;13.428;2023-06-10T05:35:44;12.95;;;7.57;;
75419;SDS011;63998;52.488;13.428;2023-06-10T05:38:09;9.38;;;5.93;;
75419;SDS011;63998;52.488;13.428;2023-06-10T05:40:35;12.88;;;5.75;;
75419;SDS011;63998;52.488;13.428;2023-06-10T05:43:00;11.63;;;6.50;;
75419;SDS011;63998;52.488;13.428;2023-06-10T05:45:26;8.80;;;6.17;;
75419;SDS011;63998;52.488;13.428;2023-06-10T05:47:52;8.82;;;5.63;;
75419;SDS011;63998;52.488;13.428;2023-06-10T05:50:17;10.80;;;7.03;;
75419;SDS011;63998;52.488;13.428;2023-06-10T05:52:42;12.00;;;5.80;;
75419;SDS011;63998;52.488;13.428;2023-06-10T05:55:08;12.33;;;7.37;;
75419;SDS011;63998;52.488;13.428;2023-06-10T05:57:34;8.40;;;6.75;;
75419;SDS011;63998;52.488;13.428;2023-06-10T05:59:59;9.52;;;6.45;;
75419;SDS011;63998;52.488;13.428;2023-06-10T06:02:25;13.27;;;6.37;;
75419;SDS011;63998;52.488;13.428;2023-06-10T06:04:50;8.43;;;5.60;;
75419;SDS011;63998;52.488;13.428;2023-06-10T06:07:15;10.60;;;6.23;;
75419;SDS011;63998;52.488;13.428;2023-06-10T06:09:41;7.30;;;5.63;;
75419;SDS011;63998;52.488;13.428;2023-06-10T06:12:06;11.17;;;6.20;;
75419;SDS011;63998;52.488;13.428;2023-06-10T06:14:36;9.32;;;5.85;;
75419;SDS011;63998;52.488;13.428;2023-06-10T06:17:03;10.57;;;5.63;;
75419;SDS011;63998;52.488;13.428;2023-06-10T06:19:28;9.05;;;6.03;;
75419;SDS011;63998;52.488;13.428;2023-06-10T06:21:54;28.10;;;17.45;;
75419;SDS011;63998;52.488;13.428;2023-06-10T06:24:19;20.30;;;9.00;;
75419;SDS011;63998;52.488;13.428;2023-06-10T06:26:44;10.70;;;7.00;;
75419;SDS011;63998;52.488;13.428;2023-06-10T06:29:10;8.50;;;6.68;;
75419;SDS011;63998;52.488;13.428;2023-06-10T06:31:35;17.77;;;11.30;;
75419;SDS011;63998;52.488;13.428;2023-06-10T06:34:01;16.15;;;9.38;;
75419;SDS011;63998;52.488;13.428;2023-06-10T06:36:26;10.88;;;7.03;;
75419;SDS011;63998;52.488;13.428;2023-06-10T06:38:52;9.57;;;6.40;;
75419;SDS011;63998;52.488;13.428;2023-06-10T06:41:17;9.57;;;6.65;;
75419;SDS011;63998;52.488;13.428;2023-06-10T06:43:42;11.57;;;7.87;;
75419;SDS011;63998;52.488;13.428;2023-06-10T06:46:08;11.25;;;7.13;;
75419;SDS011;63998;52.488;13.428;2023-06-10T06:48:33;12.55;;;6.88;;
75419;SDS011;63998;52.488;13.428;2023-06-10T06:50:59;9.53;;;6.87;;
75419;SDS011;63998;52.488;13.428;2023-06-10T06:53:24;9.00;;;6.30;;
75419;SDS011;63998;52.488;13.428;2023-06-10T06:55:50;9.73;;;6.45;;
75419;SDS011;63998;52.488;13.428;2023-06-10T06:58:15;8.70;;;6.20;;
75419;SDS011;63998;52.488;13.428;2023-06-10T07:00:41;9.98;;;6.57;;
75419;SDS011;63998;52.488;13.428;2023-06-10T07:03:06;8.98;;;6.03;;
75419;SDS011;63998;52.488;13.428;2023-06-10T07:05:31;9.63;;;6.35;;
75419;SDS011;63998;52.488;13.428;2023-06-10T07:07:57;9.48;;;6.43;;
75419;SDS011;63998;52.488;13.428;2023-06-10T07:10:23;9.53;;;6.30;;
75419;SDS011;63998;52.488;13.428;2023-06-10T07:12:49;7.50;;;5.93;;
75419;SDS011;63998;52.488;13.428;2023-06-10T07:15:14;12.48;;;6.50;;
75419;SDS011;63998;52.488;13.428;2023-06-10T07:17:40;8.05;;;6.25;;
75419;SDS011;63998;52.488;13.428;2023-06-10T07:20:05;10.33;;;6.47;;
75419;SDS011;63998;52.488;13.428;2023-06-10T07:22:31;10.98;;;7.20;;
75419;SDS011;63998;52.488;13.428;2023-06-10T07:24:57;13.27;;;7.65;;
75419;SDS011;63998;52.488;13.428;2023-06-10T07:27:22;10.95;;;7.97;;
75419;SDS011;63998;52.488;13.428;2023-06-10T07:29:48;11.50;;;8.70;;
75419;SDS011;63998;52.488;13.428;2023-06-10T07:32:13;10.67;;;7.40;;
75419;SDS011;63998;52.488;13.428;2023-06-10T07:34:39;13.17;;;8.40;;
75419;SDS011;63998;52.488;13.428;2023-06-10T07:37:04;8.83;;;6.50;;
75419;SDS011;63998;52.488;13.428;2023-06-10T07:39:30;9.05;;;7.38;;
75419;SDS011;63998;52.488;13.428;2023-06-10T07:41:55;10.53;;;6.87;;
75419;SDS011;63998;52.488;13.428;2023-06-10T07:44:22;8.50;;;7.00;;
75419;SDS011;63998;52.488;13.428;2023-06-10T07:46:47;12.85;;;7.55;;
75419;SDS011;63998;52.488;13.428;2023-06-10T07:49:13;9.50;;;7.07;;
75419;SDS011;63998;52.488;13.428;2023-06-10T07:51:39;12.23;;;7.57;;
75419;SDS011;63998;52.488;13.428;2023-06-10T07:54:04;9.45;;;6.88;;
75419;SDS011;63998;52.488;13.428;2023-06-10T07:56:29;15.85;;;11.13;;
75419;SDS011;63998;52.488;13.428;2023-06-10T07:58:55;14.53;;;10.10;;
75419;SDS011;63998;52.488;13.428;2023-06-10T08:01:20;15.33;;;8.40;;
75419;SDS011;63998;52.488;13.428;2023-06-10T08:03:45;9.83;;;7.67;;
75419;SDS011;63998;52.488;13.428;2023-06-10T08:06:11;13.13;;;7.75;;
75419;SDS011;63998;52.488;13.428;2023-06-10T08:08:36;8.30;;;6.55;;
75419;SDS011;63998;52.488;13.428;2023-06-10T08:11:07;10.23;;;6.70;;
75419;SDS011;63998;52.488;13.428;2023-06-10T08:13:32;10.32;;;7.35;;
75419;SDS011;63998;52.488;13.428;2023-06-10T08:15:58;9.27;;;6.93;;
75419;SDS011;63998;52.488;13.428;2023-06-10T08:18:23;13.77;;;8.20;;
75419;SDS011;63998;52.488;13.428;2023-06-10T08:20:48;20.53;;;10.80;;
75419;SDS011;63998;52.488;13.428;2023-06-10T08:23:14;13.38;;;9.90;;
75419;SDS011;63998;52.488;13.428;2023-06-10T08:25:39;17.02;;;12.27;;
75419;SDS011;63998;52.488;13.428;2023-06-10T08:28:05;14.17;;;10.33;;
75419;SDS011;63998;52.488;13.428;2023-06-10T08:30:30;16.98;;;11.73;;
75419;SDS011;63998;52.488;13.428;2023-06-10T08:32:55;11.10;;;8.43;;
75419;SDS011;63998;52.488;13.428;2023-06-10T08:35:21;11.90;;;8.35;;
75419;SDS011;63998;52.488;13.428;2023-06-10T08:37:47;10.88;;;7.47;;
75419;SDS011;63998;52.488;13.428;2023-06-10T08:40:12;10.02;;;8.55;;
75419;SDS011;63998;52.488;13.428;2023-06-10T08:42:54;10.70;;;8.40;;
75419;SDS011;63998;52.488;13.428;2023-06-10T08:45:28;14.23;;;10.05;;
75419;SDS011;63998;52.488;13.428;2023-06-10T08:47:56;9.23;;;7.75;;
75419;SDS011;63998;52.488;13.428;2023-06-10T08:50:23;8.30;;;7.40;;
75419;SDS011;63998;52.488;13.428;2023-06-10T08:52:50;8.93;;;7.40;;
75419;SDS011;63998;52.488;13.428;2023-06-10T08:55:23;11.27;;;8.35;;
75419;SDS011;63998;52.488;13.428;2023-06-10T08:57:55;10.77;;;9.05;;
75419;SDS011;63998;52.488;13.428;2023-06-10T09:00:21;11.65;;;7.60;;
75419;SDS011;63998;52.488;13.428;2023-06-10T09:02:47;11.38;;;8.43;;
75419;SDS011;63998;52.488;13.428;2023-06-10T09:05:13;9.10;;;7.50;;
75419;SDS011;63998;52.488;13.428;2023-06-10T09:07:39;9.63;;;6.93;;
75419;SDS011;63998;52.488;13.428;2023-06-10T09:10:04;11.77;;;8.18;;
75419;SDS011;63998;52.488;13.428;2023-06-10T09:12:32;8.75;;;6.97;;
75419;SDS011;63998;52.488;13.428;2023-06-10T09:14:59;10.95;;;7.55;;
75419;SDS011;63998;52.488;13.428;2023-06-10T09:17:24;14.25;;;10.43;;
75419;SDS011;63998;52.488;13.428;2023-06-10T09:19:50;9.25;;;7.13;;
75419;SDS011;63998;52.488;13.428;2023-06-10T09:22:18;11.73;;;7.22;;
75419;SDS011;63998;52.488;13.428;2023-06-10T09:24:44;9.68;;;6.63;;
75419;SDS011;63998;52.488;13.428;2023-06-10T09:27:11;11.07;;;7.32;;
75419;SDS011;63998;52.488;13.428;2023-06-10T09:29:46;10.60;;;7.33;;
75419;SDS011;63998;52.488;13.428;2023-06-10T09:32:13;8.68;;;7.70;;
75419;SDS011;63998;52.488;13.428;2023-06-10T09:34:39;10.63;;;7.65;;
75419;SDS011;63998;52.488;13.428;2023-06-10T09:37:04;9.07;;;6.82;;
75419;SDS011;63998;52.488;13.428;2023-06-10T09:39:30;11.07;;;7.57;;
75419;SDS011;63998;52.488;13.428;2023-06-10T09:41:55;12.20;;;6.90;;
75419;SDS011;63998;52.488;13.428;2023-06-10T09:44:21;8.37;;;6.13;;
75419;SDS011;63998;52.488;13.428;2023-06-10T09:46:47;10.82;;;6.65;;
75419;SDS011;63998;52.488;13.428;2023-06-10T09:49:13;8.32;;;5.85;;
75419;SDS011;63998;52.488;13.428;2023-06-10T09:51:48;8.38;;;5.80;;
75419;SDS011;63998;52.488;13.428;2023-06-10T09:54:18;10.68;;;6.00;;
75419;SDS011;63998;52.488;13.428;2023-06-10T09:56:44;8.85;;;5.65;;
75419;SDS011;63998;52.488;13.428;2023-06-10T09:59:12;9.20;;;6.13;;
75419;SDS011;63998;52.488;13.428;2023-06-10T10:01:37;11.70;;;6.38;;
75419;SDS011;63998;52.488;13.428;2023-06-10T10:04:03;10.50;;;6.82;;
75419;SDS011;63998;52.488;13.428;2023-06-10T10:06:29;9.02;;;7.75;;
75419;SDS011;63998;52.488;13.428;2023-06-10T10:08:55;10.75;;;6.82;;
75419;SDS011;63998;52.488;13.428;2023-06-10T10:11:21;10.55;;;7.10;;
75419;SDS011;63998;52.488;13.428;2023-06-10T10:13:48;9.57;;;6.80;;
75419;SDS011;63998;52.488;13.428;2023-06-10T10:16:16;8.73;;;6.60;;
75419;SDS011;63998;52.488;13.428;2023-06-10T10:18:43;8.55;;;6.70;;
75419;SDS011;63998;52.488;13.428;2023-06-10T10:21:26;7.65;;;6.22;;
75419;SDS011;63998;52.488;13.428;2023-06-10T10:26:23;11.45;;;6.40;;
75419;SDS011;63998;52.488;13.428;2023-06-10T10:28:53;8.95;;;6.80;;
75419;SDS011;63998;52.488;13.428;2023-06-10T10:31:28;7.80;;;5.55;;
75419;SDS011;63998;52.488;13.428;2023-06-10T10:36:24;7.63;;;6.05;;
75419;SDS011;63998;52.488;13.428;2023-06-10T10:38:50;7.90;;;6.05;;
75419;SDS011;63998;52.488;13.428;2023-06-10T10:41:16;8.55;;;6.40;;
75419;SDS011;63998;52.488;13.428;2023-06-10T10:43:43;6.72;;;5.82;;
75419;SDS011;63998;52.488;13.428;2023-06-10T10:46:11;7.07;;;5.15;;
75419;SDS011;63998;52.488;13.428;2023-06-10T10:48:39;6.43;;;5.18;;
75419;SDS011;63998;52.488;13.428;2023-06-10T10:51:08;6.72;;;4.90;;
75419;SDS011;63998;52.488;13.428;2023-06-10T10:53:34;6.20;;;5.60;;
75419;SDS011;63998;52.488;13.428;2023-06-10T10:56:13;7.32;;;4.60;;
75419;SDS011;63998;52.488;13.428;2023-06-10T10:58:39;5.13;;;4.63;;
75419;SDS011;63998;52.488;13.428;2023-06-10T11:01:11;5.22;;;4.82;;
75419;SDS011;63998;52.488;13.428;2023-06-10T11:03:44;6.15;;;4.68;;
75419;SDS011;63998;52.488;13.428;2023-06-10T11:06:12;9.50;;;4.75;;
75419;SDS011;63998;52.488;13.428;2023-06-10T11:16:56;5.10;;;4.63;;
75419;SDS011;63998;52.488;13.428;2023-06-10T11:19:35;6.28;;;5.68;;
75419;SDS011;63998;52.488;13.428;2023-06-10T11:22:03;8.25;;;6.00;;
75419;SDS011;63998;52.488;13.428;2023-06-10T11:24:30;5.68;;;5.18;;
75419;SDS011;63998;52.488;13.428;2023-06-10T11:27:14;5.65;;;4.95;;
75419;SDS011;63998;52.488;13.428;2023-06-10T11:32:30;5.63;;;5.13;;
75419;SDS011;63998;52.488;13.428;2023-06-10T11:34:59;6.30;;;5.18;;
75419;SDS011;63998;52.488;13.428;2023-06-10T11:37:25;5.07;;;4.57;;
75419;SDS011;63998;52.488;13.428;2023-06-10T11:39:51;6.85;;;6.10;;
75419;SDS011;63998;52.488;13.428;2023-06-10T11:42:18;6.40;;;5.43;;
75419;SDS011;63998;52.488;13.428;2023-06-10T11:44:48;6.82;;;5.80;;
75419;SDS011;63998;52.488;13.428;2023-06-10T11:47:14;7.47;;;6.40;;
75419;SDS011;63998;52.488;13.428;2023-06-10T11:49:40;7.30;;;5.93;;
75419;SDS011;63998;52.488;13.428;2023-06-10T11:52:05;10.02;;;6.68;;
75419;SDS011;63998;52.488;13.428;2023-06-10T11:54:31;7.35;;;6.40;;
75419;SDS011;63998;52.488;13.428;2023-06-10T11:56:59;7.17;;;5.87;;
75419;SDS011;63998;52.488;13.428;2023-06-10T11:59:28;5.57;;;5.07;;
75419;SDS011;63998;52.488;13.428;2023-06-10T12:01:54;6.43;;;5.10;;
75419;SDS011;63998;52.488;13.428;2023-06-10T12:04:20;5.65;;;5.15;;
75419;SDS011;63998;52.488;13.428;2023-06-10T12:06:50;7.15;;;5.15;;
75419;SDS011;63998;52.488;13.428;2023-06-10T12:11:57;5.57;;;5.07;;
75419;SDS011;63998;52.488;13.428;2023-06-10T12:17:22;6.57;;;5.63;;
75419;SDS011;63998;52.488;13.428;2023-06-10T12:19:57;5.47;;;4.78;;
75419;SDS011;63998;52.488;13.428;2023-06-10T12:22:23;5.40;;;4.88;;
75419;SDS011;63998;52.488;13.428;2023-06-10T12:24:59;6.53;;;5.97;;
75419;SDS011;63998;52.488;13.428;2023-06-10T12:27:30;6.47;;;5.78;;
75419;SDS011;63998;52.488;13.428;2023-06-10T12:29:56;8.00;;;5.85;;
75419;SDS011;63998;52.488;13.428;2023-06-10T12:35:21;6.68;;;6.07;;
75419;SDS011;63998;52.488;13.428;2023-06-10T12:38:01;7.55;;;6.70;;
75419;SDS011;63998;52.488;13.428;2023-06-10T12:40:28;7.15;;;6.55;;
75419;SDS011;63998;52.488;13.428;2023-06-10T12:42:58;8.77;;;7.88;;
75419;SDS011;63998;52.488;13.428;2023-06-10T12:45:28;7.57;;;6.57;;
75419;SDS011;63998;52.488;13.428;2023-06-10T12:48:06;6.55;;;5.95;;
75419;SDS011;63998;52.488;13.428;2023-06-10T12:50:39;7.95;;;7.13;;
75419;SDS011;63998;52.488;13.428;2023-06-10T12:53:05;6.95;;;6.22;;
75419;SDS011;63998;52.488;13.428;2023-06-10T12:55:32;7.60;;;6.90;;
75419;SDS011;63998;52.488;13.428;2023-06-10T12:57:57;7.47;;;6.78;;
75419;SDS011;63998;52.488;13.428;2023-06-10T13:00:23;9.63;;;7.03;;
75419;SDS011;63998;52.488;13.428;2023-06-10T13:02:55;8.40;;;7.47;;
75419;SDS011;63998;52.488;13.428;2023-06-10T13:05:21;7.47;;;6.78;;
75419;SDS011;63998;52.488;13.428;2023-06-10T13:07:47;8.85;;;6.60;;
75419;SDS011;63998;52.488;13.428;2023-06-10T13:10:13;8.10;;;7.30;;
75419;SDS011;63998;52.488;13.428;2023-06-10T13:12:41;7.47;;;6.78;;
75419;SDS011;63998;52.488;13.428;2023-06-10T13:15:10;8.75;;;6.72;;
75419;SDS011;63998;52.488;13.428;2023-06-10T13:17:36;8.05;;;7.13;;
75419;SDS011;63998;52.488;13.428;2023-06-10T13:20:05;7.70;;;7.00;;
75419;SDS011;63998;52.488;13.428;2023-06-10T13:22:31;7.60;;;6.85;;
75419;SDS011;63998;52.488;13.428;2023-06-10T13:24:58;7.88;;;7.00;;
75419;SDS011;63998;52.488;13.428;2023-06-10T13:27:24;7.55;;;6.85;;
75419;SDS011;63998;52.488;13.428;2023-06-10T13:29:50;11.25;;;9.32;;
75419;SDS011;63998;52.488;13.428;2023-06-10T13:32:15;9.07;;;7.13;;
75419;SDS011;63998;52.488;13.428;2023-06-10T13:34:40;7.17;;;6.37;;
75419;SDS011;63998;52.488;13.428;2023-06-10T13:37:06;7.93;;;6.90;;
75419;SDS011;63998;52.488;13.428;2023-06-10T13:39:31;10.38;;;8.30;;
75419;SDS011;63998;52.488;13.428;2023-06-10T13:41:57;9.10;;;6.78;;
75419;SDS011;63998;52.488;13.428;2023-06-10T13:44:22;7.27;;;6.60;;
75419;SDS011;63998;52.488;13.428;2023-06-10T13:46:47;9.23;;;7.90;;
75419;SDS011;63998;52.488;13.428;2023-06-10T13:49:13;8.75;;;7.95;;
75419;SDS011;63998;52.488;13.428;2023-06-10T13:51:38;7.50;;;6.80;;
75419;SDS011;63998;52.488;13.428;2023-06-10T13:54:03;8.52;;;7.70;;
75419;SDS011;63998;52.488;13.428;2023-06-10T13:56:29;9.90;;;8.53;;
75419;SDS011;63998;52.488;13.428;2023-06-10T13:58:55;8.43;;;7.63;;
75419;SDS011;63998;52.488;13.428;2023-06-10T14:01:20;7.38;;;6.65;;
75419;SDS011;63998;52.488;13.428;2023-06-10T14:03:46;22.10;;;14.73;;
75419;SDS011;63998;52.488;13.428;2023-06-10T14:06:11;8.50;;;7.30;;
75419;SDS011;63998;52.488;13.428;2023-06-10T14:08:43;7.57;;;6.75;;
75419;SDS011;63998;52.488;13.428;2023-06-10T14:11:08;7.40;;;6.70;;
75419;SDS011;63998;52.488;13.428;2023-06-10T14:13:34;7.50;;;6.80;;
75419;SDS011;63998;52.488;13.428;2023-06-10T14:15:59;6.97;;;6.27;;
75419;SDS011;63998;52.488;13.428;2023-06-10T14:18:27;9.60;;;8.70;;
75419;SDS011;63998;52.488;13.428;2023-06-10T14:20:53;15.45;;;12.25;;
75419;SDS011;63998;52.488;13.428;2023-06-10T14:23:18;7.07;;;6.37;;
75419;SDS011;63998;52.488;13.428;2023-06-10T14:25:43;8.77;;;7.97;;
75419;SDS011;63998;52.488;13.428;2023-06-10T14:28:09;9.47;;;7.37;;
75419;SDS011;63998;52.488;13.428;2023-06-10T14:30:34;21.17;;;15.77;;
75419;SDS011;63998;52.488;13.428;2023-06-10T14:32:59;8.98;;;8.05;;
75419;SDS011;63998;52.488;13.428;2023-06-10T14:35:25;9.30;;;8.32;;
75419;SDS011;63998;52.488;13.428;2023-06-10T14:37:50;7.10;;;6.37;;
75419;SDS011;63998;52.488;13.428;2023-06-10T14:40:15;7.00;;;6.33;;
75419;SDS011;63998;52.488;13.428;2023-06-10T14:42:41;9.40;;;6.78;;
75419;SDS011;63998;52.488;13.428;2023-06-10T14:45:06;8.30;;;6.50;;
75419;SDS011;63998;52.488;13.428;2023-06-10T14:47:32;8.52;;;6.22;;
75419;SDS011;63998;52.488;13.428;2023-06-10T14:49:58;8.02;;;5.90;;
75419;SDS011;63998;52.488;13.428;2023-06-10T14:52:23;6.23;;;5.60;;
75419;SDS011;63998;52.488;13.428;2023-06-10T14:54:48;7.18;;;6.57;;
75419;SDS011;63998;52.488;13.428;2023-06-10T14:57:14;7.50;;;5.50;;